Time;durP1;ratioP1;P1;durP2;ratioP2;P2;SDS_P1;SDS_P2;PMS_P1;PMS_P2;Temp;Humidity;BMP_temperature;BMP_pressure;BME280_temperature;BME280_humidity;BME280_pressure;Samples;Min_cycle;Max_cycle;Signal;HPM_P1;HPM_P2
2023/03/23 00:01:29;;;;;;;2.33;2.13;;;12.20;99.90;;;;;;5075686;28;20305;-49
2023/03/23 00:03:56;;;;;;;3.50;2.37;;;12.20;99.90;;;;;;5075578;28;20203;-49
2023/03/23 00:06:25;;;;;;;2.60;1.97;;;12.20;99.90;;;;;;5076610;28;20570;-48
2023/03/23 00:08:56;;;;;;;2.17;1.60;;;12.10;99.90;;;;;;5057606;28;20167;-49
2023/03/23 00:11:26;;;;;;;2.93;2.07;;;12.10;99.90;;;;;;5075623;28;20219;-48
2023/03/23 00:13:52;;;;;;;3.47;2.00;;;12.10;99.90;;;;;;5075697;28;20643;-48
2023/03/23 00:16:28;;;;;;;3.43;2.00;;;12.10;99.90;;;;;;5075665;28;20186;-49
2023/03/23 00:18:55;;;;;;;2.43;2.00;;;12.10;99.90;;;;;;5075351;28;20683;-48
2023/03/23 00:21:25;;;;;;;5.93;2.20;;;12.10;99.90;;;;;;5075269;28;20203;-49
2023/03/23 00:23:51;;;;;;;4.40;1.97;;;12.10;99.90;;;;;;5075498;28;20211;-48
2023/03/23 00:26:18;;;;;;;2.60;1.70;;;12.00;99.90;;;;;;5075570;28;20171;-48
2023/03/23 00:28:46;;;;;;;4.03;2.57;;;12.10;99.90;;;;;;5075193;28;20298;-49
2023/03/23 00:31:12;;;;;;;3.70;2.17;;;12.10;99.90;;;;;;5075170;28;20226;-49
2023/03/23 00:33:40;;;;;;;3.67;2.10;;;12.10;99.90;;;;;;5057133;28;20207;-49
2023/03/23 00:36:08;;;;;;;3.07;1.80;;;12.10;99.90;;;;;;5075461;28;20566;-51
2023/03/23 00:38:35;;;;;;;4.60;2.03;;;12.10;99.90;;;;;;5074907;28;20199;-49
2023/03/23 00:41:04;;;;;;;3.60;1.80;;;12.10;99.90;;;;;;5075112;28;20203;-50
2023/03/23 00:43:30;;;;;;;2.53;2.00;;;12.10;99.90;;;;;;5074909;28;20195;-49
2023/03/23 00:45:56;;;;;;;3.13;2.10;;;12.10;99.90;;;;;;5075607;28;20176;-49
2023/03/23 00:48:23;;;;;;;2.33;1.77;;;12.10;99.90;;;;;;5075035;28;20183;-48
2023/03/23 00:50:51;;;;;;;4.13;2.30;;;12.10;99.90;;;;;;5074915;28;20276;-47
2023/03/23 00:53:17;;;;;;;5.87;2.30;;;12.10;99.90;;;;;;5074692;28;20542;-47
2023/03/23 00:55:44;;;;;;;2.87;1.80;;;12.00;99.90;;;;;;5074636;28;20207;-48
2023/03/23 00:58:11;;;;;;;2.50;1.87;;;12.00;99.90;;;;;;5074654;28;20188;-49
2023/03/23 01:00:37;;;;;;;3.53;1.90;;;12.00;99.90;;;;;;5074738;28;20195;-49
2023/03/23 01:03:04;;;;;;;2.50;2.20;;;12.00;99.90;;;;;;5074441;28;20730;-49
2023/03/23 01:05:33;;;;;;;3.13;2.20;;;12.00;99.90;;;;;;5074449;28;20180;-48
2023/03/23 01:07:59;;;;;;;3.33;1.97;;;12.00;99.90;;;;;;5074661;28;20225;-46
2023/03/23 01:10:28;;;;;;;3.13;1.97;;;12.00;99.90;;;;;;5074619;28;20171;-49
2023/03/23 01:12:54;;;;;;;2.50;2.00;;;12.00;99.90;;;;;;5074395;28;20234;-48
2023/03/23 01:15:21;;;;;;;3.53;2.10;;;12.00;99.90;;;;;;5074626;28;20187;-48
2023/03/23 01:17:47;;;;;;;3.03;2.33;;;12.00;99.90;;;;;;5074199;28;20180;-50
2023/03/23 01:20:14;;;;;;;3.57;2.10;;;12.00;99.90;;;;;;5074373;28;20217;-48
2023/03/23 01:22:42;;;;;;;4.50;2.23;;;11.90;99.90;;;;;;5056118;28;20639;-49
2023/03/23 01:25:10;;;;;;;2.97;2.10;;;11.90;99.90;;;;;;5074073;28;20172;-49
2023/03/23 01:27:36;;;;;;;3.93;2.20;;;11.90;99.90;;;;;;5074294;28;20164;-49
2023/03/23 01:30:03;;;;;;;4.10;2.03;;;11.80;99.90;;;;;;5073541;28;20172;-47
2023/03/23 01:32:29;;;;;;;4.43;2.77;;;11.80;99.90;;;;;;5074050;28;20192;-48
2023/03/23 01:34:55;;;;;;;3.40;2.27;;;11.70;99.90;;;;;;5074082;28;20171;-48
2023/03/23 01:37:25;;;;;;;3.87;1.80;;;11.70;99.90;;;;;;5074134;28;20279;-48
2023/03/23 01:39:52;;;;;;;4.50;2.33;;;11.70;99.90;;;;;;5074185;28;20170;-48
2023/03/23 01:42:17;;;;;;;2.73;2.20;;;11.60;99.90;;;;;;5073771;28;20195;-49
2023/03/23 01:44:46;;;;;;;2.33;2.00;;;11.50;99.90;;;;;;5073663;28;20209;-49
2023/03/23 01:47:11;;;;;;;4.73;2.30;;;11.50;99.90;;;;;;5073992;28;20594;-48
2023/03/23 01:49:43;;;;;;;3.60;2.17;;;11.90;99.90;;;;;;5074090;28;20180;-49
2023/03/23 01:52:21;;;;;;;3.97;2.50;;;11.50;99.90;;;;;;5073954;28;20195;-49
2023/03/23 01:54:48;;;;;;;5.07;2.20;;;11.40;99.90;;;;;;5074007;28;20179;-48
2023/03/23 01:57:21;;;;;;;3.73;2.20;;;11.40;99.90;;;;;;5073534;28;20681;-48
2023/03/23 01:59:51;;;;;;;2.20;1.97;;;11.40;99.90;;;;;;5074147;28;20189;-49
2023/03/23 02:02:20;;;;;;;3.70;2.07;;;11.40;99.90;;;;;;5073505;28;20225;-49
2023/03/23 02:04:45;;;;;;;2.87;2.10;;;11.30;99.90;;;;;;5073612;28;20200;-49
2023/03/23 02:07:13;;;;;;;3.67;1.80;;;11.40;99.90;;;;;;5073414;28;20225;-47
2023/03/23 02:09:39;;;;;;;2.13;1.70;;;11.30;99.90;;;;;;5073400;28;20179;-48
2023/03/23 02:12:05;;;;;;;4.17;2.10;;;11.30;99.90;;;;;;5073352;28;20191;-49
2023/03/23 02:14:31;;;;;;;2.40;1.70;;;11.30;99.90;;;;;;5073436;28;20171;-47
2023/03/23 02:17:26;;;;;;;2.97;1.73;;;11.30;99.90;;;;;;5073402;28;20182;-49
2023/03/23 02:20:09;;;;;;;2.20;1.93;;;11.30;99.90;;;;;;5073296;28;20171;-48
2023/03/23 02:22:53;;;;;;;2.90;1.80;;;11.20;99.90;;;;;;5073174;28;20182;-49
2023/03/23 02:25:57;;;;;;;1.50;1.40;;;11.20;99.90;;;;;;5073594;28;20183;-47
2023/03/23 02:28:47;;;;;;;3.17;1.87;;;11.20;99.90;;;;;;5074019;28;20179;-47
2023/03/23 02:31:42;;;;;;;3.73;1.70;;;11.20;99.90;;;;;;5073433;28;20191;-49
2023/03/23 02:34:18;;;;;;;1.70;1.60;;;11.20;99.90;;;;;;5067389;28;20214;-48
2023/03/23 02:36:52;;;;;;;2.60;1.93;;;11.10;99.90;;;;;;5073345;28;20496;-48
2023/03/23 02:39:21;;;;;;;2.20;1.60;;;11.10;99.90;;;;;;5073392;28;20224;-50
2023/03/23 02:41:54;;;;;;;3.00;1.40;;;11.10;99.90;;;;;;5075204;28;20540;-48
2023/03/23 02:44:21;;;;;;;3.77;1.90;;;11.10;99.90;;;;;;5077385;28;20217;-50
2023/03/23 02:46:47;;;;;;;2.53;1.83;;;11.10;99.90;;;;;;5077636;28;20179;-48
2023/03/23 02:49:15;;;;;;;2.07;1.50;;;11.20;99.90;;;;;;5077619;28;20311;-50
2023/03/23 02:51:44;;;;;;;1.93;1.60;;;11.20;99.90;;;;;;5076951;28;20194;-48
2023/03/23 02:54:11;;;;;;;4.67;2.20;;;11.20;99.90;;;;;;5077115;28;20195;-47
2023/03/23 02:56:39;;;;;;;2.07;1.53;;;11.30;99.90;;;;;;5076956;28;20199;-49
2023/03/23 02:59:05;;;;;;;2.23;1.70;;;11.30;99.90;;;;;;5076933;28;20199;-49
2023/03/23 03:01:33;;;;;;;1.63;1.50;;;11.30;99.90;;;;;;5076828;28;20231;-48
2023/03/23 03:04:04;;;;;;;1.47;1.37;;;11.40;99.90;;;;;;5076703;28;20282;-48
2023/03/23 03:06:39;;;;;;;1.97;1.77;;;11.40;99.90;;;;;;5076826;28;20205;-47
2023/03/23 03:09:32;;;;;;;2.03;1.50;;;11.40;99.90;;;;;;5076939;28;20174;-47
2023/03/23 03:12:08;;;;;;;2.67;1.87;;;11.50;99.90;;;;;;5076540;28;20195;-48
2023/03/23 03:14:41;;;;;;;1.57;1.47;;;11.40;99.90;;;;;;5076862;28;20639;-49
2023/03/23 03:17:25;;;;;;;2.77;1.50;;;11.50;99.90;;;;;;5077072;28;20164;-47
2023/03/23 03:20:10;;;;;;;4.03;1.70;;;11.50;99.90;;;;;;5077052;28;20164;-48
2023/03/23 03:22:41;;;;;;;2.00;1.60;;;11.50;99.90;;;;;;5076402;28;20152;-48
2023/03/23 03:25:12;;;;;;;2.40;1.90;;;11.60;99.90;;;;;;5076714;28;20527;-48
2023/03/23 03:27:40;;;;;;;2.63;1.80;;;11.60;99.90;;;;;;5076876;28;20159;-49
2023/03/23 03:30:11;;;;;;;1.60;1.50;;;11.50;99.90;;;;;;5076284;28;20176;-49
2023/03/23 03:32:48;;;;;;;2.90;1.70;;;11.60;99.90;;;;;;5076816;28;20156;-49
2023/03/23 03:35:15;;;;;;;3.10;1.53;;;11.50;99.90;;;;;;5076480;28;20220;-49
2023/03/23 03:37:41;;;;;;;4.90;2.10;;;11.60;99.90;;;;;;5076473;28;20592;-47
2023/03/23 03:40:13;;;;;;;2.30;1.70;;;11.60;99.90;;;;;;5076174;28;20170;-49
2023/03/23 03:42:40;;;;;;;1.73;1.50;;;11.60;99.90;;;;;;5076198;28;20170;-48
2023/03/23 03:45:08;;;;;;;3.17;1.60;;;11.60;99.90;;;;;;5076379;28;20175;-49
2023/03/23 03:47:34;;;;;;;2.53;1.70;;;11.60;99.90;;;;;;5076190;28;20180;-49
2023/03/23 03:50:00;;;;;;;2.43;1.90;;;11.60;99.90;;;;;;5075945;28;20225;-49
2023/03/23 03:52:27;;;;;;;2.00;1.80;;;11.60;99.90;;;;;;5075460;28;20240;-48
2023/03/23 03:54:53;;;;;;;2.10;1.80;;;11.60;99.90;;;;;;5075888;28;20271;-47
2023/03/23 03:57:19;;;;;;;2.90;2.00;;;11.60;99.90;;;;;;5075830;28;20222;-48
2023/03/23 03:59:45;;;;;;;2.50;2.10;;;11.60;99.90;;;;;;5076359;28;20540;-49
2023/03/23 04:02:13;;;;;;;2.80;1.90;;;11.60;99.90;;;;;;5075733;28;20195;-49
2023/03/23 04:04:40;;;;;;;2.73;1.60;;;11.60;99.90;;;;;;5075886;28;20203;-50
2023/03/23 04:07:05;;;;;;;4.60;2.13;;;11.60;99.90;;;;;;5075824;28;20175;-50
2023/03/23 04:09:31;;;;;;;2.93;2.03;;;11.60;99.90;;;;;;5075659;28;20254;-48
2023/03/23 04:11:57;;;;;;;2.37;1.83;;;11.70;99.90;;;;;;5076096;28;20196;-49
2023/03/23 04:14:22;;;;;;;3.13;2.20;;;11.70;99.90;;;;;;5075460;28;20674;-48
2023/03/23 04:16:51;;;;;;;1.93;1.70;;;11.70;99.90;;;;;;5075587;28;20215;-51
2023/03/23 04:19:18;;;;;;;2.97;2.40;;;11.70;99.90;;;;;;5075719;28;20172;-49
2023/03/23 04:21:48;;;;;;;3.60;2.10;;;11.70;99.90;;;;;;5075851;28;20199;-50
2023/03/23 04:24:14;;;;;;;6.73;2.30;;;11.70;99.90;;;;;;5075862;28;20219;-49
2023/03/23 04:26:41;;;;;;;2.17;1.90;;;11.60;99.90;;;;;;5075970;28;20190;-50
2023/03/23 04:29:08;;;;;;;2.30;1.83;;;11.70;99.90;;;;;;5075575;28;20175;-47
2023/03/23 04:31:34;;;;;;;2.77;2.17;;;11.70;99.90;;;;;;5075364;28;20199;-48
2023/03/23 04:34:01;;;;;;;4.03;2.10;;;11.70;99.90;;;;;;5075149;28;20651;-48
2023/03/23 04:36:28;;;;;;;3.57;2.50;;;11.70;99.90;;;;;;5075052;28;20175;-47
2023/03/23 04:38:55;;;;;;;2.33;1.93;;;11.60;99.90;;;;;;5075263;28;20541;-49
2023/03/23 04:41:21;;;;;;;3.53;2.43;;;11.70;99.90;;;;;;5074949;28;20694;-48
2023/03/23 04:43:52;;;;;;;3.07;2.20;;;11.70;99.90;;;;;;5056904;28;20282;-49
2023/03/23 04:46:19;;;;;;;2.50;2.00;;;11.70;99.90;;;;;;5075460;28;20600;-49
2023/03/23 04:48:45;;;;;;;2.37;1.53;;;11.70;99.90;;;;;;5074758;28;20179;-49
2023/03/23 04:51:12;;;;;;;3.57;1.97;;;11.70;99.90;;;;;;5075736;28;20253;-47
2023/03/23 04:53:38;;;;;;;2.30;2.10;;;11.70;99.90;;;;;;5074683;28;20280;-49
2023/03/23 04:56:04;;;;;;;3.40;2.07;;;11.70;99.90;;;;;;5074513;28;20286;-48
2023/03/23 04:58:33;;;;;;;3.53;2.47;;;11.70;99.90;;;;;;5074665;28;20703;-48
2023/03/23 05:00:59;;;;;;;2.10;1.90;;;11.70;99.90;;;;;;5074467;28;20675;-48
2023/03/23 05:03:25;;;;;;;2.73;2.10;;;11.70;99.90;;;;;;5073989;28;20198;-49
2023/03/23 05:05:51;;;;;;;2.93;2.07;;;11.70;99.90;;;;;;5074424;28;20179;-47
2023/03/23 05:08:19;;;;;;;3.43;2.00;;;11.70;99.90;;;;;;5074463;28;20221;-48
2023/03/23 05:11:00;;;;;;;2.20;2.00;;;11.70;99.90;;;;;;5074658;28;20221;-48
2023/03/23 05:13:26;;;;;;;5.83;2.40;;;11.60;99.90;;;;;;5074348;28;20195;-48
2023/03/23 05:15:52;;;;;;;4.60;2.37;;;11.70;99.90;;;;;;5074214;28;20701;-50
2023/03/23 05:18:20;;;;;;;3.03;2.17;;;11.60;99.90;;;;;;5074748;28;20176;-48
2023/03/23 05:20:46;;;;;;;4.53;2.30;;;11.60;99.90;;;;;;5074027;28;20737;-48
2023/03/23 05:23:12;;;;;;;2.63;2.03;;;11.60;99.90;;;;;;5074137;28;20190;-48
2023/03/23 05:25:41;;;;;;;5.03;2.33;;;11.60;99.90;;;;;;5074289;28;20550;-49
2023/03/23 05:28:08;;;;;;;12.10;2.47;;;11.60;99.90;;;;;;5074145;28;20176;-48
2023/03/23 05:30:35;;;;;;;2.70;1.87;;;11.50;99.90;;;;;;5073824;28;20664;-48
2023/03/23 05:33:00;;;;;;;2.43;2.20;;;11.50;99.90;;;;;;5074097;28;20188;-49
2023/03/23 05:35:27;;;;;;;7.50;1.97;;;11.50;99.90;;;;;;5073744;28;20655;-48
2023/03/23 05:37:53;;;;;;;4.00;2.30;;;11.50;99.90;;;;;;5073878;28;20180;-49
2023/03/23 05:40:20;;;;;;;2.87;1.83;;;11.50;99.90;;;;;;5073648;28;20188;-49
2023/03/23 05:42:45;;;;;;;4.33;2.17;;;11.50;99.90;;;;;;5073836;28;20658;-48
2023/03/23 05:45:11;;;;;;;4.70;1.77;;;11.40;99.90;;;;;;5073907;28;20176;-49
2023/03/23 05:47:39;;;;;;;5.73;2.07;;;11.40;99.90;;;;;;5073887;28;20171;-49
2023/03/23 05:50:06;;;;;;;4.00;2.13;;;11.40;99.90;;;;;;5073762;28;20221;-47
2023/03/23 05:52:35;;;;;;;4.07;1.93;;;11.40;99.90;;;;;;5073672;28;20171;-48
2023/03/23 05:55:03;;;;;;;4.77;2.00;;;11.40;99.90;;;;;;5073355;28;20183;-48
2023/03/23 05:57:29;;;;;;;2.20;1.90;;;11.30;99.90;;;;;;5073802;28;20213;-47
2023/03/23 05:59:55;;;;;;;3.20;2.20;;;11.30;99.90;;;;;;5073492;28;20206;-48
2023/03/23 06:02:23;;;;;;;3.30;1.97;;;11.30;99.90;;;;;;5073707;28;20557;-49
2023/03/23 06:04:48;;;;;;;6.03;2.30;;;11.30;99.90;;;;;;5073413;28;20191;-49
2023/03/23 06:07:14;;;;;;;4.57;2.00;;;11.40;99.90;;;;;;5073688;28;20186;-49
2023/03/23 06:09:41;;;;;;;4.50;1.77;;;11.40;99.90;;;;;;5074017;28;20171;-50
2023/03/23 06:12:09;;;;;;;4.07;1.70;;;11.40;99.90;;;;;;5073652;28;20287;-50
2023/03/23 06:14:35;;;;;;;3.73;1.90;;;11.40;99.90;;;;;;5073525;28;20228;-50
2023/03/23 06:17:00;;;;;;;3.53;1.70;;;11.40;99.90;;;;;;5073689;28;20201;-48
2023/03/23 06:19:28;;;;;;;5.97;2.87;;;11.40;99.90;;;;;;5073626;28;20179;-48
2023/03/23 06:21:56;;;;;;;3.77;1.90;;;11.40;99.90;;;;;;5073530;28;20581;-48
2023/03/23 06:24:22;;;;;;;3.33;1.53;;;11.40;99.90;;;;;;5073660;28;20202;-48
2023/03/23 06:26:48;;;;;;;3.20;1.90;;;11.50;99.90;;;;;;5073560;28;20179;-49
2023/03/23 06:29:14;;;;;;;3.93;2.40;;;11.50;99.90;;;;;;5073609;28;20184;-48
2023/03/23 06:31:49;;;;;;;2.43;1.40;;;11.50;99.90;;;;;;5073214;28;20205;-50
2023/03/23 06:34:14;;;;;;;2.23;1.50;;;11.50;99.90;;;;;;5073468;28;20266;-49
2023/03/23 06:36:40;;;;;;;3.80;1.60;;;11.50;99.90;;;;;;5073483;28;20264;-49
2023/03/23 06:39:06;;;;;;;6.40;1.97;;;11.60;99.90;;;;;;5073102;28;20180;-50
2023/03/23 06:41:32;;;;;;;5.67;1.93;;;11.50;99.90;;;;;;5073096;28;20273;-49
2023/03/23 06:43:59;;;;;;;4.83;2.23;;;11.60;99.90;;;;;;5073296;28;20223;-49
2023/03/23 06:46:24;;;;;;;3.43;1.50;;;11.60;99.90;;;;;;5073386;28;20164;-50
2023/03/23 06:48:51;;;;;;;2.63;1.27;;;11.60;99.90;;;;;;5073323;28;20185;-49
2023/03/23 06:51:17;;;;;;;3.33;1.70;;;11.60;99.90;;;;;;5073197;28;20234;-50
2023/03/23 06:53:43;;;;;;;4.00;1.60;;;11.70;99.90;;;;;;5073072;28;20232;-50
2023/03/23 06:56:09;;;;;;;2.13;1.17;;;11.70;99.90;;;;;;5073001;28;20203;-48
2023/03/23 06:58:35;;;;;;;4.33;1.73;;;11.70;99.90;;;;;;5098502;23;20309;-49
2023/03/23 07:01:00;;;;;;;3.27;1.60;;;11.70;99.90;;;;;;5093171;28;20269;-49
2023/03/23 07:03:27;;;;;;;2.33;1.80;;;11.70;99.90;;;;;;5093046;28;20199;-48
2023/03/23 07:05:54;;;;;;;1.87;1.40;;;11.80;99.90;;;;;;5093104;28;20656;-48
2023/03/23 07:08:20;;;;;;;3.23;1.70;;;11.80;99.90;;;;;;5093246;28;20179;-47
2023/03/23 07:10:46;;;;;;;2.73;1.40;;;11.80;99.90;;;;;;5093298;28;20218;-49
2023/03/23 07:13:12;;;;;;;4.87;1.37;;;11.90;99.90;;;;;;5093372;28;20193;-49
2023/03/23 07:15:38;;;;;;;4.37;1.93;;;11.90;99.90;;;;;;5093114;28;20526;-49
2023/03/23 07:18:04;;;;;;;2.13;1.33;;;11.90;99.90;;;;;;5093287;28;20206;-49
2023/03/23 07:20:30;;;;;;;3.03;1.40;;;12.00;99.90;;;;;;5093213;28;20637;-48
2023/03/23 07:22:55;;;;;;;4.63;1.60;;;12.00;99.90;;;;;;5092917;28;20260;-48
2023/03/23 07:25:21;;;;;;;4.67;1.40;;;12.10;99.90;;;;;;5092926;28;20523;-47
2023/03/23 07:27:47;;;;;;;2.53;1.43;;;12.10;99.90;;;;;;5095259;28;20183;-50
2023/03/23 07:30:14;;;;;;;2.17;1.13;;;12.10;99.90;;;;;;5096556;28;20629;-49
2023/03/23 07:32:41;;;;;;;4.97;1.70;;;12.20;99.90;;;;;;5096941;28;20193;-49
2023/03/23 07:35:08;;;;;;;4.47;1.60;;;12.20;99.90;;;;;;5096714;28;20182;-49
2023/03/23 07:37:35;;;;;;;5.17;1.57;;;12.20;99.90;;;;;;5096455;28;20646;-49
2023/03/23 07:40:14;;;;;;;3.53;1.40;;;12.20;99.90;;;;;;5096769;28;20171;-49
2023/03/23 07:42:43;;;;;;;2.73;1.43;;;12.30;99.90;;;;;;5096625;28;20182;-49
2023/03/23 07:45:13;;;;;;;7.10;1.77;;;12.30;99.90;;;;;;5096625;28;20258;-49
2023/03/23 07:47:40;;;;;;;2.93;1.40;;;12.30;99.90;;;;;;5096638;28;20167;-49
2023/03/23 07:50:06;;;;;;;1.97;1.20;;;12.40;99.90;;;;;;5096589;28;20179;-50
2023/03/23 07:52:33;;;;;;;2.57;1.40;;;12.40;99.90;;;;;;5096223;28;20175;-49
2023/03/23 07:55:01;;;;;;;5.10;1.43;;;12.40;99.90;;;;;;5096251;28;20606;-48
2023/03/23 07:57:27;;;;;;;9.60;1.70;;;12.50;99.90;;;;;;5098781;28;20175;-52
2023/03/23 07:59:52;;;;;;;5.37;1.70;;;12.50;99.90;;;;;;5096108;28;20167;-51
2023/03/23 08:02:18;;;;;;;4.43;1.77;;;12.50;99.90;;;;;;5095974;28;20256;-52
2023/03/23 08:04:44;;;;;;;4.97;1.47;;;12.60;99.90;;;;;;5095948;28;20203;-52
2023/03/23 08:07:12;;;;;;;4.63;1.73;;;12.60;99.90;;;;;;5095866;28;20193;-50
2023/03/23 08:09:38;;;;;;;3.93;1.57;;;12.60;99.90;;;;;;5095807;28;20183;-51
2023/03/23 08:12:04;;;;;;;4.30;1.73;;;12.70;99.90;;;;;;5096162;28;20197;-51
2023/03/23 08:14:30;;;;;;;3.37;1.57;;;12.70;99.90;;;;;;5096076;28;20194;-51
2023/03/23 08:16:57;;;;;;;3.60;1.67;;;12.80;99.90;;;;;;5095988;28;20187;-51
2023/03/23 08:19:22;;;;;;;4.23;1.67;;;12.80;99.90;;;;;;5096004;28;20279;-51
2023/03/23 08:21:49;;;;;;;4.13;1.73;;;12.80;99.90;;;;;;5096354;28;20238;-50
2023/03/23 08:24:15;;;;;;;6.40;2.03;;;12.90;99.90;;;;;;5095642;28;20194;-49
2023/03/23 08:26:41;;;;;;;4.50;1.63;;;12.90;99.90;;;;;;5095814;28;20239;-50
2023/03/23 08:29:08;;;;;;;4.17;1.63;;;13.00;99.90;;;;;;5095780;28;20179;-51
2023/03/23 08:31:35;;;;;;;3.33;1.40;;;13.00;99.90;;;;;;5095636;28;20213;-51
2023/03/23 08:34:01;;;;;;;3.53;1.37;;;13.10;99.90;;;;;;5095413;28;20175;-51
2023/03/23 08:36:28;;;;;;;4.30;1.40;;;13.10;99.90;;;;;;5095466;28;20179;-50
2023/03/23 08:38:54;;;;;;;4.43;1.40;;;13.20;99.90;;;;;;5094170;28;20178;-50
2023/03/23 08:41:19;;;;;;;2.57;1.33;;;13.30;99.90;;;;;;5095337;28;20328;-52
2023/03/23 08:43:46;;;;;;;6.77;1.63;;;13.40;99.90;;;;;;5095359;28;20210;-51
2023/03/23 08:46:12;;;;;;;2.67;1.43;;;13.50;99.90;;;;;;5095432;28;20178;-52
2023/03/23 08:48:38;;;;;;;2.33;1.23;;;13.60;99.90;;;;;;5095107;28;20539;-51
2023/03/23 08:51:06;;;;;;;5.63;1.40;;;13.70;99.90;;;;;;5095036;28;20761;-51
2023/03/23 08:53:32;;;;;;;2.63;1.20;;;13.70;99.90;;;;;;5095355;28;20182;-50
2023/03/23 08:56:09;;;;;;;4.37;1.53;;;13.70;99.90;;;;;;5093766;28;20183;-50
2023/03/23 08:58:36;;;;;;;5.07;1.43;;;13.80;99.90;;;;;;5094795;28;20197;-49
2023/03/23 09:01:04;;;;;;;3.03;1.77;;;13.80;99.90;;;;;;5094838;28;20205;-51
2023/03/23 09:03:30;;;;;;;4.93;1.33;;;13.80;99.90;;;;;;5094821;28;20198;-51
2023/03/23 09:06:05;;;;;;;2.80;1.30;;;13.80;99.90;;;;;;5095154;28;20273;-51
2023/03/23 09:08:31;;;;;;;2.70;1.17;;;13.80;99.90;;;;;;5095078;28;20188;-51
2023/03/23 09:11:02;;;;;;;3.93;1.57;;;13.80;99.90;;;;;;5094713;28;20199;-50
2023/03/23 09:13:28;;;;;;;5.13;1.40;;;13.70;99.90;;;;;;5094690;28;20269;-50
2023/03/23 09:15:54;;;;;;;5.40;1.30;;;13.70;99.90;;;;;;5094875;28;20270;-51
2023/03/23 09:18:20;;;;;;;6.70;1.50;;;13.60;99.90;;;;;;5095157;28;20175;-51
2023/03/23 09:20:46;;;;;;;4.10;1.50;;;13.60;99.90;;;;;;5094463;28;20209;-51
2023/03/23 09:23:13;;;;;;;4.37;1.30;;;13.50;99.90;;;;;;5094672;28;20234;-50
2023/03/23 09:25:39;;;;;;;2.43;1.50;;;13.50;99.90;;;;;;5094698;28;20179;-51
2023/03/23 09:28:04;;;;;;;3.03;1.20;;;13.50;99.90;;;;;;5094610;28;20205;-51
2023/03/23 09:30:32;;;;;;;2.70;1.20;;;13.40;99.90;;;;;;5094362;28;20681;-51
2023/03/23 09:33:03;;;;;;;3.90;1.20;;;13.40;99.90;;;;;;5094798;28;20209;-50
2023/03/23 09:35:31;;;;;;;3.47;1.10;;;13.40;99.90;;;;;;5095350;28;20159;-49
2023/03/23 09:38:00;;;;;;;2.63;1.33;;;13.40;99.90;;;;;;5095175;28;20240;-50
2023/03/23 09:40:48;;;;;;;6.87;1.90;;;13.40;99.90;;;;;;5095137;28;20202;-48
2023/03/23 09:43:21;;;;;;;5.40;1.50;;;13.50;99.90;;;;;;5095433;28;20597;-48
2023/03/23 09:46:18;;;;;;;4.87;1.40;;;13.50;99.90;;;;;;5094525;28;20174;-49
2023/03/23 09:48:47;;;;;;;4.00;1.57;;;13.60;99.90;;;;;;5075267;28;20191;-50
2023/03/23 09:51:34;;;;;;;3.67;1.40;;;13.70;99.90;;;;;;5094130;28;20704;-51
2023/03/23 09:54:30;;;;;;;5.17;1.60;;;13.70;99.90;;;;;;5094705;28;20262;-49
2023/03/23 09:56:58;;;;;;;3.13;1.53;;;13.60;99.90;;;;;;5093496;28;20244;-48
2023/03/23 09:59:40;;;;;;;4.33;1.27;;;13.60;99.90;;;;;;5094670;28;20198;-50
2023/03/23 10:02:17;;;;;;;4.23;1.70;;;13.50;99.90;;;;;;5093674;28;20717;-49
2023/03/23 10:04:47;;;;;;;3.33;1.40;;;13.40;99.90;;;;;;5094536;28;20213;-50
2023/03/23 10:07:23;;;;;;;1.90;1.00;;;13.40;99.90;;;;;;5094496;28;20261;-50
2023/03/23 10:09:54;;;;;;;4.63;1.20;;;13.30;99.90;;;;;;5094826;28;20171;-49
2023/03/23 10:12:33;;;;;;;4.13;1.37;;;13.30;99.90;;;;;;5094646;28;20195;-50
2023/03/23 10:15:08;;;;;;;2.73;1.00;;;13.20;99.90;;;;;;5095383;28;20255;-50
2023/03/23 10:17:42;;;;;;;1.20;1.00;;;13.20;99.90;;;;;;5095125;28;20170;-49
2023/03/23 10:20:16;;;;;;;2.03;0.87;;;13.10;99.90;;;;;;5094591;28;20163;-48
2023/03/23 10:23:04;;;;;;;1.60;0.93;;;13.10;99.90;;;;;;5093810;28;20185;-48
2023/03/23 10:25:34;;;;;;;2.13;0.90;;;13.10;99.90;;;;;;5092425;28;20208;-50
2023/03/23 10:28:03;;;;;;;2.30;1.17;;;13.10;99.90;;;;;;5094153;28;20171;-49
2023/03/23 10:30:48;;;;;;;1.90;0.97;;;13.00;99.90;;;;;;5093688;28;20191;-48
2023/03/23 10:33:22;;;;;;;2.43;1.00;;;12.80;99.90;;;;;;5093627;28;20193;-50
2023/03/23 10:36:00;;;;;;;1.03;0.67;;;12.60;99.90;;;;;;5094574;28;20159;-48
2023/03/23 10:38:43;;;;;;;1.83;0.90;;;12.50;99.90;;;;;;5095023;28;20184;-48
2023/03/23 10:41:15;;;;;;;3.13;1.00;;;12.30;99.90;;;;;;5094157;28;20210;-47
2023/03/23 10:43:42;;;;;;;3.57;1.27;;;12.00;99.90;;;;;;5094287;28;20202;-47
2023/03/23 10:46:29;;;;;;;1.63;1.40;;;12.00;99.90;;;;;;5094334;28;20174;-50
2023/03/23 10:48:58;;;;;;;3.70;1.53;;;11.80;99.90;;;;;;5094266;28;20658;-50
2023/03/23 10:51:32;;;;;;;2.10;1.20;;;11.80;99.90;;;;;;5094186;28;20243;-48
2023/03/23 10:54:00;;;;;;;1.57;1.07;;;11.80;99.90;;;;;;5097261;28;20167;-50
2023/03/23 10:56:34;;;;;;;2.93;1.27;;;11.70;99.90;;;;;;5094842;28;20190;-50
2023/03/23 10:59:11;;;;;;;3.50;1.67;;;11.60;99.90;;;;;;5093249;28;20206;-49
2023/03/23 11:01:37;;;;;;;3.70;1.30;;;11.50;99.90;;;;;;5093457;28;20205;-48
2023/03/23 11:04:04;;;;;;;2.00;1.20;;;11.40;99.90;;;;;;5097426;28;20289;-50
2023/03/23 11:06:35;;;;;;;2.53;1.10;;;11.30;99.90;;;;;;5097183;28;20171;-49
2023/03/23 11:09:09;;;;;;;2.67;1.20;;;11.30;99.90;;;;;;5097250;28;20183;-47
2023/03/23 11:11:42;;;;;;;2.37;1.03;;;11.30;99.90;;;;;;5097027;28;20214;-48
2023/03/23 11:14:24;;;;;;;4.03;1.50;;;11.30;99.90;;;;;;5097043;28;20160;-48
2023/03/23 11:16:56;;;;;;;1.33;1.10;;;11.40;99.90;;;;;;5097521;28;20167;-48
2023/03/23 11:19:28;;;;;;;4.33;1.20;;;11.60;99.90;;;;;;5097131;28;20190;-48
2023/03/23 11:21:59;;;;;;;2.63;1.40;;;11.70;99.90;;;;;;5096842;28;20239;-48
2023/03/23 11:24:28;;;;;;;2.20;1.10;;;11.70;99.90;;;;;;5096706;28;20658;-48
2023/03/23 11:26:57;;;;;;;2.77;1.53;;;11.80;99.90;;;;;;5096795;28;20171;-47
2023/03/23 11:29:26;;;;;;;2.97;1.50;;;11.80;99.90;;;;;;5097042;28;20252;-46
2023/03/23 11:32:12;;;;;;;2.20;1.13;;;11.70;99.90;;;;;;5096679;28;20704;-47
2023/03/23 11:34:44;;;;;;;3.13;1.40;;;11.70;99.90;;;;;;5096803;28;20178;-47
2023/03/23 11:37:33;;;;;;;3.67;1.27;;;11.70;99.90;;;;;;5096766;28;20186;-47
2023/03/23 11:40:01;;;;;;;3.07;1.47;;;11.80;99.90;;;;;;5087044;28;20198;-48
2023/03/23 11:42:43;;;;;;;2.33;1.33;;;11.90;99.90;;;;;;5096924;28;20266;-49
2023/03/23 11:45:18;;;;;;;1.40;1.13;;;12.00;99.90;;;;;;5096685;28;20527;-48
2023/03/23 11:48:13;;;;;;;5.77;1.53;;;12.20;99.90;;;;;;5096707;28;20185;-48
2023/03/23 11:50:47;;;;;;;2.50;1.10;;;12.40;99.90;;;;;;5096738;28;20661;-49
2023/03/23 11:53:27;;;;;;;1.00;0.90;;;12.60;99.90;;;;;;5096964;28;20687;-48
2023/03/23 11:56:12;;;;;;;1.77;1.27;;;12.70;99.90;;;;;;5097448;28;20586;-48
2023/03/23 11:58:38;;;;;;;2.57;1.23;;;12.80;99.90;;;;;;5097137;28;20658;-48
2023/03/23 12:01:06;;;;;;;0.93;0.83;;;12.90;99.90;;;;;;5097154;28;20212;-49
2023/03/23 12:04:07;;;;;;;1.30;1.20;;;13.00;99.90;;;;;;5096866;28;20206;-48
2023/03/23 12:06:46;;;;;;;2.13;1.10;;;13.00;99.90;;;;;;5077160;28;20187;-47
2023/03/23 12:09:30;;;;;;;1.63;1.23;;;13.10;99.90;;;;;;5096738;28;20167;-49
2023/03/23 12:12:28;;;;;;;3.97;1.60;;;13.10;99.90;;;;;;5096901;28;20201;-49
2023/03/23 12:15:21;;;;;;;3.20;1.67;;;13.10;99.90;;;;;;5073485;28;20545;-49
2023/03/23 12:18:01;;;;;;;2.60;1.40;;;13.10;99.90;;;;;;5096397;28;20250;-49
2023/03/23 12:20:35;;;;;;;3.20;1.40;;;13.00;99.90;;;;;;5096473;28;20622;-48
2023/03/23 12:23:37;;;;;;;4.13;1.93;;;12.90;99.90;;;;;;5096248;28;20162;-48
2023/03/23 12:26:18;;;;;;;3.20;1.60;;;13.10;99.90;;;;;;5054005;28;20176;-47
2023/03/23 12:29:12;;;;;;;3.10;1.60;;;13.30;99.90;;;;;;5091962;28;20179;-49
2023/03/23 12:31:48;;;;;;;2.73;1.70;;;13.60;99.90;;;;;;5095733;28;20192;-48
2023/03/23 12:34:17;;;;;;;2.20;1.30;;;13.70;99.90;;;;;;5095568;28;20163;-47
2023/03/23 12:37:04;;;;;;;3.77;1.40;;;13.80;99.90;;;;;;5095451;28;20218;-49
2023/03/23 12:39:52;;;;;;;8.37;1.40;;;13.90;99.90;;;;;;5095666;28;20231;-49
2023/03/23 12:42:58;;;;;;;2.27;1.30;;;13.90;99.90;;;;;;5095687;28;20550;-48
2023/03/23 12:45:46;;;;;;;2.97;1.17;;;13.90;99.90;;;;;;5095678;28;20172;-49
2023/03/23 12:48:42;;;;;;;5.23;1.97;;;13.90;99.90;;;;;;5095547;28;20174;-50
2023/03/23 12:51:10;;;;;;;2.53;1.50;;;13.80;99.90;;;;;;5097337;28;20199;-49
2023/03/23 12:53:46;;;;;;;3.37;1.60;;;13.70;99.90;;;;;;5097431;28;20257;-50
2023/03/23 12:56:18;;;;;;;2.87;1.67;;;13.60;99.90;;;;;;5095739;28;20198;-49
2023/03/23 12:58:53;;;;;;;3.10;1.60;;;13.40;99.90;;;;;;5109630;22;20240;-46
2023/03/23 13:01:32;;;;;;;4.10;1.70;;;13.30;99.90;;;;;;5094891;28;20204;-46
2023/03/23 13:04:11;;;;;;;5.07;1.67;;;13.30;99.90;;;;;;5094893;28;20194;-48
2023/03/23 13:06:46;;;;;;;3.07;1.70;;;13.20;99.90;;;;;;5094859;28;20262;-46